createdAt,value
2022-10-06T00:01:40.628Z,20.13
2022-10-06T00:04:10.008Z,21.65
2022-10-06T00:06:38.997Z,21.45
2022-10-06T00:09:07.686Z,22.17
2022-10-06T00:11:36.637Z,22.80
2022-10-06T00:14:05.316Z,21.67
2022-10-06T00:16:34.096Z,20.55
2022-10-06T00:19:03.025Z,21.52
2022-10-06T00:21:31.648Z,19.67
2022-10-06T00:24:00.260Z,21.67
2022-10-06T00:26:29.087Z,21.23
2022-10-06T00:28:57.645Z,22.60
2022-10-06T00:31:26.901Z,21.58
2022-10-06T00:33:55.756Z,21.98
2022-10-06T00:36:24.599Z,21.90
2022-10-06T00:38:53.576Z,21.20
2022-10-06T00:41:22.607Z,23.05
2022-10-06T00:43:54.266Z,21.90
2022-10-06T00:46:36.360Z,21.48
2022-10-06T00:49:21.070Z,22.00
2022-10-06T00:52:03.537Z,21.70
2022-10-06T00:54:32.816Z,20.88
2022-10-06T00:57:01.735Z,20.85
2022-10-06T00:59:30.497Z,20.95
2022-10-06T01:02:08.607Z,20.80
2022-10-06T01:04:39.016Z,21.25
2022-10-06T01:07:07.730Z,20.35
2022-10-06T01:09:38.618Z,20.45
2022-10-06T01:12:08.386Z,20.48
2022-10-06T01:14:38.057Z,20.83
2022-10-06T01:17:16.098Z,20.25
2022-10-06T01:19:53.666Z,20.90
2022-10-06T01:22:31.408Z,19.20
2022-10-06T01:25:00.103Z,20.13
2022-10-06T01:27:30.926Z,19.65
2022-10-06T01:29:59.647Z,18.33
2022-10-06T01:32:32.305Z,17.55
2022-10-06T01:35:01.777Z,18.95
2022-10-06T01:37:31.215Z,18.05
2022-10-06T01:40:00.048Z,20.08
2022-10-06T01:42:32.186Z,17.77
2022-10-06T01:45:00.826Z,18.10
2022-10-06T01:47:29.663Z,18.50
2022-10-06T01:49:58.256Z,18.60
2022-10-06T01:52:27.138Z,18.52
2022-10-06T01:54:56.136Z,19.38
2022-10-06T01:57:25.795Z,18.88
2022-10-06T01:59:55.035Z,18.15
2022-10-06T02:02:25.995Z,17.13
2022-10-06T02:04:55.087Z,19.20
2022-10-06T02:07:24.797Z,19.02
2022-10-06T02:09:53.788Z,18.17
2022-10-06T02:12:22.606Z,19.38
2022-10-06T02:14:51.217Z,18.40
2022-10-06T02:17:20.067Z,19.85
2022-10-06T02:19:48.829Z,18.42
2022-10-06T02:22:17.515Z,21.05
2022-10-06T02:24:46.517Z,19.50
2022-10-06T02:27:15.215Z,17.90
2022-10-06T02:29:45.111Z,18.48
2022-10-06T02:32:15.337Z,18.08
2022-10-06T02:34:44.628Z,19.40
2022-10-06T02:37:16.035Z,19.05
2022-10-06T02:39:44.788Z,19.10
2022-10-06T02:42:13.517Z,20.35
2022-10-06T02:44:42.297Z,18.90
2022-10-06T02:47:14.755Z,19.15
2022-10-06T02:49:43.586Z,20.08
2022-10-06T02:52:12.725Z,18.63
2022-10-06T02:54:41.387Z,19.48
2022-10-06T02:57:10.160Z,19.88
2022-10-06T02:59:38.948Z,20.20
2022-10-06T03:02:08.152Z,20.10
2022-10-06T03:04:37.804Z,20.20
2022-10-06T03:07:07.579Z,20.30
2022-10-06T03:09:39.362Z,19.88
2022-10-06T03:12:10.261Z,21.63
2022-10-06T03:14:42.043Z,22.02
2022-10-06T03:17:11.325Z,20.58
2022-10-06T03:19:46.683Z,20.77
2022-10-06T03:22:16.552Z,21.45
2022-10-06T03:24:51.611Z,22.55
2022-10-06T03:27:20.533Z,20.17
2022-10-06T03:29:49.161Z,21.55
2022-10-06T03:32:18.205Z,21.17
2022-10-06T03:34:47.895Z,22.33
2022-10-06T03:37:19.313Z,21.33
2022-10-06T03:39:48.292Z,21.60
2022-10-06T03:42:17.764Z,22.48
2022-10-06T03:44:47.593Z,21.05
2022-10-06T03:47:17.625Z,21.33
2022-10-06T03:49:48.142Z,21.08
2022-10-06T03:52:21.261Z,20.50
2022-10-06T03:54:54.732Z,19.75
2022-10-06T03:57:24.352Z,21.00
2022-10-06T03:59:53.054Z,20.52
2022-10-06T04:02:21.975Z,20.10
2022-10-06T04:04:50.672Z,20.48
2022-10-06T04:07:20.283Z,21.27
2022-10-06T04:09:48.966Z,21.73
2022-10-06T04:12:19.049Z,19.45
2022-10-06T04:14:47.902Z,20.33
2022-10-06T04:17:17.032Z,20.30
2022-10-06T04:19:45.682Z,20.67
2022-10-06T04:22:15.664Z,21.58
2022-10-06T04:24:44.383Z,21.02
2022-10-06T04:27:28.022Z,21.25
2022-10-06T04:30:17.253Z,18.95
2022-10-06T04:32:46.313Z,20.13
2022-10-06T04:35:15.833Z,21.02
2022-10-06T04:37:44.993Z,20.85
2022-10-06T04:40:14.232Z,20.20
2022-10-06T04:42:43.452Z,20.30
2022-10-06T04:45:16.375Z,20.95
2022-10-06T04:47:50.466Z,20.10
2022-10-06T04:50:19.441Z,19.98
2022-10-06T04:53:05.803Z,20.60
2022-10-06T04:55:34.697Z,19.67
2022-10-06T04:58:03.731Z,19.13
2022-10-06T05:00:32.633Z,18.85
2022-10-06T05:03:01.485Z,19.60
2022-10-06T05:05:31.062Z,19.85
2022-10-06T05:08:00.644Z,20.20
2022-10-06T05:10:30.863Z,21.38
2022-10-06T05:12:59.647Z,20.42
2022-10-06T05:15:29.533Z,21.40
2022-10-06T05:17:58.454Z,21.25
2022-10-06T05:20:27.074Z,22.50
2022-10-06T05:22:56.082Z,22.33
2022-10-06T05:25:25.254Z,20.90
2022-10-06T05:27:54.023Z,21.35
2022-10-06T05:30:22.951Z,21.35
2022-10-06T05:32:52.642Z,20.25
2022-10-06T05:35:21.884Z,22.13
2022-10-06T05:37:50.832Z,21.65
2022-10-06T05:40:19.633Z,20.42
2022-10-06T05:42:48.312Z,20.75
2022-10-06T05:45:18.183Z,21.63
2022-10-06T05:47:46.882Z,20.90
2022-10-06T05:50:16.342Z,20.73
2022-10-06T05:52:45.213Z,20.98
2022-10-06T05:55:14.392Z,23.60
2022-10-06T05:57:43.132Z,21.77
2022-10-06T06:00:12.395Z,21.70
2022-10-06T06:02:43.608Z,21.15
2022-10-06T06:05:14.189Z,22.85
2022-10-06T06:07:42.889Z,21.48
2022-10-06T06:10:11.909Z,22.63
2022-10-06T06:12:41.101Z,21.83
2022-10-06T06:15:47.442Z,21.75
2022-10-06T06:18:17.111Z,23.05
2022-10-06T06:20:51.004Z,22.25
2022-10-06T06:23:20.088Z,21.42
2022-10-06T06:26:02.095Z,20.60
2022-10-06T06:28:32.307Z,21.02
2022-10-06T06:31:03.110Z,23.42
2022-10-06T06:33:32.359Z,21.30
2022-10-06T06:36:03.537Z,22.52
2022-10-06T06:38:32.893Z,23.98
2022-10-06T06:41:01.992Z,22.30
2022-10-06T06:43:31.108Z,22.00
2022-10-06T06:46:28.606Z,23.38
2022-10-06T06:49:04.572Z,22.10
2022-10-06T06:51:40.413Z,22.85
2022-10-06T06:54:10.257Z,21.15
2022-10-06T06:56:42.797Z,22.25
2022-10-06T06:59:14.176Z,21.13
2022-10-06T07:01:47.621Z,22.37
2022-10-06T07:04:19.917Z,20.48
2022-10-06T07:06:58.632Z,23.27
2022-10-06T07:09:33.298Z,22.13
2022-10-06T07:12:11.787Z,21.15
2022-10-06T07:15:04.559Z,23.10
2022-10-06T07:17:58.579Z,18.65
2022-10-06T07:20:45.869Z,22.73
2022-10-06T07:23:36.097Z,22.48
2022-10-06T07:26:07.608Z,20.17
2022-10-06T07:28:36.717Z,21.90
2022-10-06T07:31:05.923Z,21.58
2022-10-06T07:33:35.417Z,22.48
2022-10-06T07:36:06.757Z,22.83
2022-10-06T07:38:36.506Z,23.50
2022-10-06T07:41:18.793Z,23.40
2022-10-06T07:43:54.071Z,22.00
2022-10-06T07:46:24.584Z,22.50
2022-10-06T07:49:01.261Z,21.13
2022-10-06T07:51:30.006Z,21.95
2022-10-06T07:54:00.386Z,23.70
2022-10-06T07:56:34.126Z,22.65
2022-10-06T07:59:03.316Z,23.27
2022-10-06T08:01:31.938Z,22.02
2022-10-06T08:04:00.595Z,22.67
2022-10-06T08:06:29.496Z,20.52
2022-10-06T08:08:58.276Z,19.58
2022-10-06T08:11:27.523Z,21.52
2022-10-06T08:13:56.416Z,21.40
2022-10-06T08:16:30.508Z,20.85
2022-10-06T08:19:00.302Z,20.33
2022-10-06T08:21:34.551Z,19.30
2022-10-06T08:24:03.817Z,20.00
2022-10-06T08:26:33.460Z,23.52
2022-10-06T08:29:03.713Z,23.88
2022-10-06T08:31:33.786Z,23.63
2022-10-06T08:34:02.345Z,23.63
2022-10-06T08:36:32.228Z,23.58
2022-10-06T08:39:02.116Z,21.38
2022-10-06T08:41:52.067Z,21.65
2022-10-06T08:44:43.317Z,22.98
2022-10-06T08:47:18.526Z,22.48
2022-10-06T08:49:48.297Z,21.55
2022-10-06T08:52:51.561Z,20.38
2022-10-06T08:55:28.806Z,18.00
2022-10-06T08:58:29.273Z,19.20
2022-10-06T09:01:19.134Z,17.58
2022-10-06T09:03:49.134Z,15.60
2022-10-06T09:06:39.796Z,15.95
2022-10-06T09:09:34.125Z,17.05
2022-10-06T09:12:08.617Z,19.70
2022-10-06T09:14:46.008Z,21.50
2022-10-06T09:17:19.129Z,23.45
2022-10-06T09:19:52.057Z,24.55
2022-10-06T09:22:22.564Z,21.10
2022-10-06T09:24:56.048Z,24.40
2022-10-06T09:27:33.801Z,26.48
2022-10-06T09:30:04.842Z,25.58
2022-10-06T09:32:35.263Z,25.73
2022-10-06T09:35:13.011Z,26.95
2022-10-06T09:38:02.249Z,24.08
2022-10-06T09:40:51.663Z,24.65
2022-10-06T09:43:23.204Z,25.58
2022-10-06T09:45:54.345Z,26.75
2022-10-06T09:48:27.135Z,28.27
2022-10-06T09:51:16.193Z,25.63
2022-10-06T09:54:14.475Z,24.33
2022-10-06T09:56:45.161Z,22.48
2022-10-06T09:59:39.764Z,26.27
2022-10-06T10:02:41.781Z,24.63
2022-10-06T10:05:21.565Z,24.33
2022-10-06T10:08:18.526Z,22.58
2022-10-06T10:10:47.827Z,21.10
2022-10-06T10:13:29.637Z,22.77
2022-10-06T10:16:00.978Z,26.00
2022-10-06T10:18:30.984Z,24.10
2022-10-06T10:21:08.888Z,26.17
2022-10-06T10:23:39.835Z,25.05
2022-10-06T10:26:14.677Z,25.92
2022-10-06T10:29:04.233Z,29.02
2022-10-06T10:31:54.993Z,25.65
2022-10-06T10:34:43.184Z,24.20
2022-10-06T10:37:31.568Z,25.30
2022-10-06T10:40:14.706Z,24.73
2022-10-06T10:43:13.045Z,26.42
2022-10-06T10:46:14.334Z,28.85
2022-10-06T10:48:51.904Z,37.67
2022-10-06T10:51:57.726Z,35.10
2022-10-06T10:54:44.986Z,35.13
2022-10-06T10:57:18.404Z,32.17
2022-10-06T10:59:58.282Z,29.92
2022-10-06T11:02:27.360Z,29.42
2022-10-06T11:05:10.423Z,31.02
2022-10-06T11:07:44.666Z,27.58
2022-10-06T11:10:16.153Z,32.30
2022-10-06T11:12:57.808Z,29.25
2022-10-06T11:16:01.334Z,29.42
2022-10-06T11:19:01.366Z,31.58
2022-10-06T11:21:43.587Z,29.67
2022-10-06T11:24:16.014Z,34.90
2022-10-06T11:26:50.897Z,37.50
2022-10-06T11:29:41.555Z,39.10
2022-10-06T11:32:25.143Z,43.22
2022-10-06T11:34:53.844Z,37.95
2022-10-06T11:37:35.150Z,34.72
2022-10-06T11:40:26.785Z,38.97
2022-10-06T11:43:35.303Z,41.30
2022-10-06T11:46:21.195Z,40.95
2022-10-06T11:48:50.192Z,41.78
2022-10-06T11:51:25.183Z,40.08
2022-10-06T11:53:55.878Z,40.20
2022-10-06T11:56:36.315Z,38.75
2022-10-06T11:59:13.540Z,41.28
2022-10-06T12:01:45.561Z,40.47
2022-10-06T12:04:20.764Z,37.13
2022-10-06T12:06:54.905Z,37.72
2022-10-06T12:09:31.538Z,34.63
2022-10-06T12:12:03.561Z,33.95
2022-10-06T12:17:43.564Z,29.80
2022-10-06T12:20:26.148Z,28.00
2022-10-06T12:23:39.525Z,26.53
2022-10-06T12:26:31.564Z,25.00
2022-10-06T12:29:31.134Z,22.95
2022-10-06T12:32:02.973Z,22.92
2022-10-06T12:35:06.623Z,22.38
2022-10-06T12:37:54.482Z,23.17
2022-10-06T12:40:49.416Z,19.45
2022-10-06T12:43:25.114Z,17.63
2022-10-06T12:46:08.198Z,19.10
2022-10-06T12:49:03.038Z,17.38
2022-10-06T12:51:35.637Z,16.83
2022-10-06T12:54:28.772Z,17.60
2022-10-06T12:57:18.753Z,16.95
2022-10-06T12:59:49.562Z,16.58
2022-10-06T13:02:28.519Z,16.85
2022-10-06T13:05:02.037Z,16.90
2022-10-06T13:07:34.764Z,15.70
2022-10-06T13:10:15.733Z,15.38
2022-10-06T13:12:49.384Z,16.00
2022-10-06T13:15:19.948Z,17.10
2022-10-06T13:18:16.551Z,19.27
2022-10-06T13:20:53.077Z,21.70
2022-10-06T13:23:29.537Z,21.67
2022-10-06T13:25:58.484Z,19.48
2022-10-06T13:28:28.524Z,22.00
2022-10-06T13:30:59.847Z,22.45
2022-10-06T13:33:38.771Z,22.63
2022-10-06T13:36:07.986Z,23.05
2022-10-06T13:38:39.900Z,25.73
2022-10-06T13:41:17.937Z,25.70
2022-10-06T13:44:13.833Z,22.92
2022-10-06T13:46:45.520Z,21.00
2022-10-06T13:49:22.966Z,22.00
2022-10-06T13:51:56.263Z,22.10
2022-10-06T13:54:45.135Z,20.92
2022-10-06T13:57:36.684Z,19.77
2022-10-06T14:00:14.333Z,24.73
2022-10-06T14:02:45.470Z,24.52
2022-10-06T14:05:30.151Z,21.60
2022-10-06T14:08:25.412Z,19.15
2022-10-06T14:10:58.610Z,21.45
2022-10-06T14:13:41.569Z,21.08
2022-10-06T14:16:18.697Z,18.90
2022-10-06T14:19:04.174Z,22.38
2022-10-06T14:21:37.028Z,20.45
2022-10-06T14:24:21.375Z,24.67
2022-10-06T14:26:50.892Z,22.13
2022-10-06T14:29:20.016Z,22.50
2022-10-06T14:31:48.956Z,21.55
2022-10-06T14:34:19.738Z,23.77
2022-10-06T14:36:51.868Z,19.33
2022-10-06T14:39:21.544Z,23.10
2022-10-06T14:41:50.745Z,23.17
2022-10-06T14:44:19.464Z,23.67
2022-10-06T14:46:48.974Z,25.63
2022-10-06T14:49:17.758Z,23.98
2022-10-06T14:51:46.504Z,23.35
2022-10-06T14:54:15.479Z,21.02
2022-10-06T14:56:44.304Z,20.48
2022-10-06T14:59:17.179Z,20.90
2022-10-06T15:01:47.016Z,18.58
2022-10-06T15:04:19.602Z,18.90
2022-10-06T15:07:06.972Z,17.90
2022-10-06T15:09:35.960Z,18.10
2022-10-06T15:12:05.016Z,17.45
2022-10-06T15:14:40.064Z,20.05
2022-10-06T15:17:09.031Z,15.77
2022-10-06T15:19:38.074Z,18.25
2022-10-06T15:22:09.084Z,17.08
2022-10-06T15:24:37.642Z,15.93
2022-10-06T15:27:25.393Z,15.65
2022-10-06T15:29:54.304Z,16.92
2022-10-06T15:32:22.849Z,14.80
2022-10-06T15:34:55.502Z,15.95
2022-10-06T15:37:24.343Z,17.83
2022-10-06T15:39:53.000Z,16.27
2022-10-06T15:42:24.471Z,19.40
2022-10-06T15:44:53.344Z,17.08
2022-10-06T15:47:23.949Z,19.75
2022-10-06T15:49:52.541Z,15.50
2022-10-06T15:52:21.324Z,15.35
2022-10-06T15:54:50.125Z,14.07
2022-10-06T15:57:21.326Z,15.43
2022-10-06T15:59:50.293Z,16.60
2022-10-06T16:02:20.260Z,14.52
2022-10-06T16:04:55.764Z,14.25
2022-10-06T16:07:24.808Z,13.48
2022-10-06T16:09:53.428Z,13.48
2022-10-06T16:12:23.370Z,14.63
2022-10-06T16:14:52.704Z,14.10
2022-10-06T16:17:21.129Z,13.77
2022-10-06T16:19:49.854Z,16.40
2022-10-06T16:22:19.623Z,15.32
2022-10-06T16:24:48.267Z,15.40
2022-10-06T16:27:17.071Z,18.80
2022-10-06T16:29:45.621Z,16.50
2022-10-06T16:32:14.159Z,15.60
2022-10-06T16:34:42.882Z,17.30
2022-10-06T16:37:11.407Z,16.75
2022-10-06T16:39:39.853Z,14.38
2022-10-06T16:42:08.592Z,14.60
2022-10-06T16:44:37.084Z,13.30
2022-10-06T16:47:05.989Z,14.70
2022-10-06T16:49:34.914Z,14.75
2022-10-06T16:52:03.699Z,13.40
2022-10-06T16:54:32.362Z,13.02
2022-10-06T16:57:06.775Z,13.02
2022-10-06T16:59:35.364Z,12.82
2022-10-06T17:02:04.264Z,13.43
2022-10-06T17:04:32.932Z,11.75
2022-10-06T17:07:01.771Z,11.70
2022-10-06T17:09:31.874Z,11.98
2022-10-06T17:12:02.276Z,11.68
2022-10-06T17:14:32.357Z,11.65
2022-10-06T17:17:01.371Z,10.48
2022-10-06T17:19:30.841Z,10.43
2022-10-06T17:22:00.235Z,10.55
2022-10-06T17:24:30.494Z,10.35
2022-10-06T17:26:59.465Z,9.82
2022-10-06T17:29:28.330Z,11.25
2022-10-06T17:32:00.472Z,10.38
2022-10-06T17:37:02.217Z,11.05
2022-10-06T17:39:31.198Z,11.23
2022-10-06T17:41:59.953Z,10.43
2022-10-06T17:44:29.512Z,9.90
2022-10-06T17:47:00.712Z,10.52
2022-10-06T17:49:32.949Z,10.13
2022-10-06T17:52:01.766Z,11.27
2022-10-06T17:54:31.933Z,11.50
2022-10-06T17:57:00.581Z,11.27
2022-10-06T17:59:31.120Z,10.90
2022-10-06T18:02:02.887Z,11.02
2022-10-06T18:04:34.715Z,11.30
2022-10-06T18:07:04.079Z,10.48
2022-10-06T18:09:32.915Z,11.05
2022-10-06T18:12:02.996Z,11.25
2022-10-06T18:14:35.109Z,10.90
2022-10-06T18:17:04.309Z,11.38
2022-10-06T18:19:36.163Z,10.90
2022-10-06T18:22:13.264Z,10.52
2022-10-06T18:24:41.919Z,12.52
2022-10-06T18:27:14.073Z,9.65
2022-10-06T18:29:42.741Z,12.40
2022-10-06T18:36:12.267Z,12.18
2022-10-06T18:37:53.060Z,11.98
2022-10-06T18:40:24.691Z,10.57
2022-10-06T18:42:53.520Z,9.75
2022-10-06T18:45:40.626Z,10.88
2022-10-06T18:48:28.260Z,10.68
2022-10-06T18:51:01.403Z,11.63
2022-10-06T18:53:32.934Z,10.18
2022-10-06T18:56:01.650Z,11.05
2022-10-06T18:58:30.239Z,11.05
2022-10-06T19:01:04.069Z,11.07
2022-10-06T19:03:32.894Z,11.65
2022-10-06T19:06:01.909Z,11.43
2022-10-06T19:08:30.810Z,12.57
2022-10-06T19:11:22.593Z,14.02
2022-10-06T19:13:53.495Z,13.15
2022-10-06T19:16:22.759Z,11.48
2022-10-06T19:18:51.692Z,12.65
2022-10-06T19:21:20.771Z,13.30
2022-10-06T19:23:51.108Z,15.38
2022-10-06T19:26:23.267Z,14.13
2022-10-06T19:28:54.349Z,14.97
2022-10-06T19:31:23.710Z,15.23
2022-10-06T19:33:53.148Z,15.95
2022-10-06T19:36:22.828Z,16.70
2022-10-06T19:38:52.118Z,17.00
2022-10-06T19:41:40.618Z,13.30
2022-10-06T19:44:09.930Z,26.02
2022-10-06T19:46:43.317Z,28.50
2022-10-06T19:49:12.027Z,27.50
2022-10-06T19:51:41.506Z,28.52
2022-10-06T19:54:15.549Z,29.30
2022-10-06T19:56:46.658Z,28.20
2022-10-06T19:59:19.708Z,30.88
2022-10-06T20:01:49.652Z,28.15
2022-10-06T20:04:20.380Z,30.08
2022-10-06T20:06:49.702Z,29.92
2022-10-06T20:09:20.971Z,31.13
2022-10-06T20:11:51.209Z,29.27
2022-10-06T20:14:23.010Z,30.55
2022-10-06T20:16:56.605Z,29.88
2022-10-06T20:19:26.461Z,29.80
2022-10-06T20:21:55.113Z,32.33
2022-10-06T20:24:24.953Z,33.47
2022-10-06T20:26:55.066Z,31.42
2022-10-06T20:29:25.460Z,30.98
2022-10-06T20:31:56.247Z,30.27
2022-10-06T20:34:32.148Z,32.42
2022-10-06T20:37:05.166Z,31.15
2022-10-06T20:42:21.691Z,29.23
2022-10-06T20:44:50.464Z,31.80
2022-10-06T20:47:19.039Z,29.92
2022-10-06T20:49:53.568Z,31.05
2022-10-06T20:52:24.194Z,31.52
2022-10-06T20:54:53.087Z,30.58
2022-10-06T20:57:21.583Z,33.13
2022-10-06T20:59:50.148Z,32.00
2022-10-06T21:02:19.266Z,32.38
2022-10-06T21:04:47.971Z,32.50
2022-10-06T21:07:18.878Z,33.55
2022-10-06T21:09:52.000Z,32.85
2022-10-06T21:12:21.095Z,35.35
2022-10-06T21:14:50.078Z,34.95
2022-10-06T21:17:19.270Z,36.28
2022-10-06T21:19:47.829Z,36.42
2022-10-06T21:22:16.716Z,35.50
2022-10-06T21:24:45.468Z,34.58
2022-10-06T21:27:14.121Z,34.17
2022-10-06T21:29:43.034Z,32.33
2022-10-06T21:32:11.680Z,32.65
2022-10-06T21:34:40.415Z,34.75
2022-10-06T21:37:09.239Z,35.13
2022-10-06T21:39:37.848Z,36.13
2022-10-06T21:42:06.509Z,34.30
2022-10-06T21:44:35.332Z,33.22
2022-10-06T21:47:04.019Z,37.25
2022-10-06T21:49:32.731Z,35.92
2022-10-06T21:52:04.990Z,33.65
2022-10-06T21:54:33.759Z,34.47
2022-10-06T21:57:02.652Z,33.85
2022-10-06T21:59:31.281Z,33.25
2022-10-06T22:02:00.055Z,32.75
2022-10-06T22:04:29.092Z,32.65
2022-10-06T22:06:57.771Z,31.50
2022-10-06T22:09:26.711Z,32.72
2022-10-06T22:11:55.815Z,32.55
2022-10-06T22:14:24.693Z,32.15
2022-10-06T22:16:53.321Z,31.27
2022-10-06T22:19:22.516Z,31.38
2022-10-06T22:21:51.313Z,32.60
2022-10-06T22:24:21.181Z,30.92
2022-10-06T22:26:50.213Z,30.23
2022-10-06T22:29:19.986Z,31.20
2022-10-06T22:31:49.438Z,30.13
2022-10-06T22:34:21.351Z,33.05
2022-10-06T22:36:50.100Z,30.05
2022-10-06T22:39:19.216Z,32.22
2022-10-06T22:41:48.315Z,31.00
2022-10-06T22:44:16.983Z,30.33
2022-10-06T22:46:46.031Z,30.15
2022-10-06T22:49:14.923Z,30.50
2022-10-06T22:51:43.780Z,29.52
2022-10-06T22:54:16.910Z,30.15
2022-10-06T22:59:14.593Z,29.55
2022-10-06T23:01:43.394Z,29.73
2022-10-06T23:04:12.123Z,27.42
2022-10-06T23:06:41.023Z,27.67
2022-10-06T23:09:09.844Z,29.58
2022-10-06T23:11:38.864Z,26.95
2022-10-06T23:14:07.791Z,26.60
2022-10-06T23:16:36.619Z,25.05
2022-10-06T23:19:05.449Z,26.52
2022-10-06T23:21:34.806Z,26.02
2022-10-06T23:24:03.713Z,25.77
2022-10-06T23:26:33.165Z,24.10
2022-10-06T23:29:02.583Z,24.95
2022-10-06T23:31:31.404Z,23.35
2022-10-06T23:34:00.242Z,23.05
2022-10-06T23:36:29.566Z,24.17
2022-10-06T23:38:58.232Z,23.88
2022-10-06T23:41:26.954Z,24.83
2022-10-06T23:43:55.848Z,26.25
2022-10-06T23:46:24.549Z,24.98
2022-10-06T23:48:53.221Z,25.63
2022-10-06T23:51:22.250Z,26.75
2022-10-06T23:53:51.001Z,25.65
2022-10-06T23:56:20.997Z,24.85
2022-10-06T23:58:50.049Z,27.67
